Regal Star — ESCM — position and weather

sailwx.info

Track history (hours):
 
Tides and Currents Weather Stations Pressure Air Temp Water Temp Dewpoint Dewpoint Depression Visibility Wind Speed Wind Dir Waves Ship Positions

Regal Star

Last reported at 2015-Jul-07 23:19 UTC. Time now 2015-Jul-08 04:25 UTC.
Position N 59°27' E 021°28'.

Length 157 m; draft 6.1 m.

Type: Ship (hazmat cat B). MMSI: 276554000.

Date/timePositionNaut miles runAvg speedWind from/ knotsBaromVisibWave heightAir tempDewpointWater temp
2015-Jul-07 23:19N 59°27' E 021°28'1215.0
2015-Jul-07 22:32N 59°25' E 021°50'9 0.4
2015-Jul-07 00:15N 59°31' E 021°38'1115.6
2015-Jul-06 23:32N 59°34' E 021°17'68 4.0
2015-Jul-06 06:32N 59°43' E 019°04'0 0.0
2015-Jul-06 05:08N 59°43' E 019°04'5911.8
2015-Jul-06 00:10N 59°31' E 020°58'1015.8
2015-Jul-05 23:33N 59°29' E 021°16'1615.9
2015-Jul-05 22:33N 59°25' E 021°47'1615.8
2015-Jul-05 21:33N 59°21' E 022°17'1515.5
2015-Jul-05 20:33N 59°21' E 022°47'1615.6
2015-Jul-05 19:33N 59°22' E 023°18'16 3.8
2015-Jul-05 15:15N 59°23' E 023°50'1116.3
2015-Jul-05 14:33N 59°23' E 023°27'3416.3
2015-Jul-05 12:28N 59°24' E 022°21'1516.1
2015-Jul-05 11:33N 59°28' E 021°53'1616.0
2015-Jul-05 10:33N 59°33' E 021°23'1715.9
2015-Jul-05 09:28N 59°38' E 020°50'15 1.5
2015-Jul-04 23:34N 59°29' E 021°15'1515.4
2015-Jul-04 22:33N 59°26' E 021°44'1615.9
2015-Jul-04 21:32N 59°22' E 022°15'1515.5
2015-Jul-04 20:34N 59°20' E 022°45'1615.8
2015-Jul-04 19:33N 59°21' E 023°16'13 0.8
2015-Jul-04 04:33N 59°23' E 023°40'1110.5
2015-Jul-04 03:28N 59°23' E 023°17'1314.5
2015-Jul-04 02:34N 59°23' E 022°52'1515.3
2015-Jul-04 01:33N 59°24' E 022°22'1515.4
2015-Jul-04 00:34N 59°28' E 021°52'1615.6
2015-Jul-03 23:33N 59°32' E 021°22'13 0.6
2015-Jul-03 00:19N 59°31' E 020°56'1215.5
2015-Jul-02 23:34N 59°29' E 021°18'1515.2
2015-Jul-02 22:33N 59°25' E 021°47'1515.2
2015-Jul-02 21:34N 59°21' E 022°16'1615.7
2015-Jul-02 20:34N 59°21' E 022°47'1615.6
2015-Jul-02 19:34N 59°22' E 023°18'1515.3
2015-Jul-02 18:33N 59°22' E 023°48'9 0.7
2015-Jul-02 05:33N 59°20' E 024°04'1414.4
2015-Jul-02 04:33N 59°23' E 023°36'1312.6
2015-Jul-02 03:33N 59°22' E 023°11'1515.5
2015-Jul-02 02:33N 59°23' E 022°41'1515.5
2015-Jul-02 01:33N 59°26' E 022°11'1616.0
2015-Jul-02 00:33N 59°30' E 021°41'1616.1
2015-Jul-01 23:33N 59°35' E 021°10'4414.8
2015-Jul-01 20:33N 59°45' E 019°45'55 2.6
2015-Jun-30 23:18N 59°27' E 021°28'1215.8
2015-Jun-30 22:33N 59°25' E 021°51'1615.6
2015-Jun-30 21:33N 59°21' E 022°21'10 0.5
2015-Jun-30 01:07N 59°27' E 022°04'815.3
2015-Jun-30 00:33N 59°29' E 021°48'1515.2
2015-Jun-29 23:33N 59°34' E 021°20'12 0.5
2015-Jun-29 00:13N 59°31' E 020°57'1015.0
2015-Jun-28 23:33N 59°29' E 021°16'1515.2
2015-Jun-28 22:33N 59°26' E 021°46'1515.3
2015-Jun-28 21:33N 59°23' E 022°15'1615.8
2015-Jun-28 20:33N 59°21' E 022°46'1615.9
2015-Jun-28 19:33N 59°22' E 023°17'1515.5
2015-Jun-28 18:33N 59°22' E 023°47'9 2.9
2015-Jun-28 15:19N 59°20' E 024°05'911.2
2015-Jun-28 14:33N 59°23' E 023°49'1716.8
2015-Jun-28 13:33N 59°23' E 023°16'1716.7
2015-Jun-28 12:33N 59°23' E 022°43'1616.0
2015-Jun-28 11:33N 59°26' E 022°12'1616.1
2015-Jun-28 10:33N 59°30' E 021°42'1716.1
2015-Jun-28 09:31N 59°35' E 021°10'1516.0
2015-Jun-28 08:33N 59°39' E 020°41'20 2.3
2015-Jun-27 23:33N 59°29' E 021°15'  
Track history (hours):
 
Tides and Currents Weather Stations Pressure Air Temp Water Temp Dewpoint Dewpoint Depression Visibility Wind Speed Wind Dir Waves Ship Positions

Regal Star

Last reported at 2015-Jul-07 23:19 UTC. Time now 2015-Jul-08 04:25 UTC.
Position N 59°27' E 021°28'.

Length 157 m; draft 6.1 m.

Type: Ship (hazmat cat B). MMSI: 276554000.

Date/timePositionNaut miles runAvg speedWind from/ knotsBaromVisibWave heightAir tempDewpointWater temp
2015-Jul-07 23:19N 59°27' E 021°28'1215.0
2015-Jul-07 22:32N 59°25' E 021°50'9 0.4
2015-Jul-07 00:15N 59°31' E 021°38'1115.6
2015-Jul-06 23:32N 59°34' E 021°17'68 4.0
2015-Jul-06 06:32N 59°43' E 019°04'0 0.0
2015-Jul-06 05:08N 59°43' E 019°04'5911.8
2015-Jul-06 00:10N 59°31' E 020°58'1015.8
2015-Jul-05 23:33N 59°29' E 021°16'1615.9
2015-Jul-05 22:33N 59°25' E 021°47'1615.8
2015-Jul-05 21:33N 59°21' E 022°17'1515.5
2015-Jul-05 20:33N 59°21' E 022°47'1615.6
2015-Jul-05 19:33N 59°22' E 023°18'16 3.8
2015-Jul-05 15:15N 59°23' E 023°50'1116.3
2015-Jul-05 14:33N 59°23' E 023°27'3416.3
2015-Jul-05 12:28N 59°24' E 022°21'1516.1
2015-Jul-05 11:33N 59°28' E 021°53'1616.0
2015-Jul-05 10:33N 59°33' E 021°23'1715.9
2015-Jul-05 09:28N 59°38' E 020°50'15 1.5
2015-Jul-04 23:34N 59°29' E 021°15'1515.4
2015-Jul-04 22:33N 59°26' E 021°44'1615.9
2015-Jul-04 21:32N 59°22' E 022°15'1515.5
2015-Jul-04 20:34N 59°20' E 022°45'1615.8
2015-Jul-04 19:33N 59°21' E 023°16'13 0.8
2015-Jul-04 04:33N 59°23' E 023°40'1110.5
2015-Jul-04 03:28N 59°23' E 023°17'1314.5
2015-Jul-04 02:34N 59°23' E 022°52'1515.3
2015-Jul-04 01:33N 59°24' E 022°22'1515.4
2015-Jul-04 00:34N 59°28' E 021°52'1615.6
2015-Jul-03 23:33N 59°32' E 021°22'13 0.6
2015-Jul-03 00:19N 59°31' E 020°56'1215.5
2015-Jul-02 23:34N 59°29' E 021°18'1515.2
2015-Jul-02 22:33N 59°25' E 021°47'1515.2
2015-Jul-02 21:34N 59°21' E 022°16'1615.7
2015-Jul-02 20:34N 59°21' E 022°47'1615.6
2015-Jul-02 19:34N 59°22' E 023°18'1515.3
2015-Jul-02 18:33N 59°22' E 023°48'9 0.7
2015-Jul-02 05:33N 59°20' E 024°04'1414.4
2015-Jul-02 04:33N 59°23' E 023°36'1312.6
2015-Jul-02 03:33N 59°22' E 023°11'1515.5
2015-Jul-02 02:33N 59°23' E 022°41'1515.5
2015-Jul-02 01:33N 59°26' E 022°11'1616.0
2015-Jul-02 00:33N 59°30' E 021°41'1616.1
2015-Jul-01 23:33N 59°35' E 021°10'4414.8
2015-Jul-01 20:33N 59°45' E 019°45'55 2.6
2015-Jun-30 23:18N 59°27' E 021°28'1215.8
2015-Jun-30 22:33N 59°25' E 021°51'1615.6
2015-Jun-30 21:33N 59°21' E 022°21'10 0.5
2015-Jun-30 01:07N 59°27' E 022°04'815.3
2015-Jun-30 00:33N 59°29' E 021°48'1515.2
2015-Jun-29 23:33N 59°34' E 021°20'12 0.5
2015-Jun-29 00:13N 59°31' E 020°57'1015.0
2015-Jun-28 23:33N 59°29' E 021°16'1515.2
2015-Jun-28 22:33N 59°26' E 021°46'1515.3
2015-Jun-28 21:33N 59°23' E 022°15'1615.8
2015-Jun-28 20:33N 59°21' E 022°46'1615.9
2015-Jun-28 19:33N 59°22' E 023°17'1515.5
2015-Jun-28 18:33N 59°22' E 023°47'9 2.9
2015-Jun-28 15:19N 59°20' E 024°05'911.2
2015-Jun-28 14:33N 59°23' E 023°49'1716.8
2015-Jun-28 13:33N 59°23' E 023°16'1716.7
2015-Jun-28 12:33N 59°23' E 022°43'1616.0
2015-Jun-28 11:33N 59°26' E 022°12'1616.1
2015-Jun-28 10:33N 59°30' E 021°42'1716.1
2015-Jun-28 09:31N 59°35' E 021°10'1516.0
2015-Jun-28 08:33N 59°39' E 020°41'20 2.3
2015-Jun-27 23:33N 59°29' E 021°15'  

Dump ship's entire track history